Terminal Aerodrome Forecast
Issued by NWS

Home | Current Version | Previous Version | Text Only | Print | Product List | Glossary On
Versions: 1 2 3 4 5 6 7 8 9 10 11 12 13
196
FTPA31 PHFO 262341
TAFHKO
TAF
PHKO 262341Z 2700/2724 23009KT P6SM SCT050 OVC150
     FM270700 08005KT P6SM OVC100
     FM272100 23009KT P6SM VCSH FEW030 BKN045 OVC090=

USA.gov is the U.S. government's official web portal to all federal, state and local government web resources and services.